Flight Track Log - Related Links

Times and Time Zones

All times are in EDT time to prevent confusion due to time zone crossing. See the N589H flight status page for this flight to view local times or setup timezone preferences in your user account.

Time Position Orientation Groundspeed Altitude Reporting Facility
EDT Latitude Longitude Course Direction KTS MPH feet Rate Location/Type
Fri 05:04:37 AM 27.9000 -82.6833 204° Southwest 142 163 700  Level Tampa TRACON
Fri 05:05:13 AM 27.8667 -82.7000 204° Southwest 160 184 1,700 1,750 Climbing Tampa TRACON
Fri 05:06:13 AM 27.8333 -82.7167 204° Southwest 182 209 3,500 1,700 Climbing Tampa TRACON
Fri 05:07:13 AM 27.7833 -82.7333 196° South 186 214 5,100 1,650 Climbing Tampa TRACON
Fri 05:08:13 AM 27.7333 -82.7333 180° South 216 249 6,800 1,568 Climbing Tampa TRACON
Fri 05:10:09 AM 27.6289 -82.6500 145° Southeast 249 287 9,700 1,500 Climbing Miami Center
Fri 05:10:21 AM 27.6189 -82.6378 133° Southeast 249 287 10,000 1,606 Climbing Miami Center
Fri 05:11:20 AM 27.5625 -82.5928 145° Southeast 254 292 11,600 1,627 Climbing Miami Center
Fri 05:12:19 AM 27.5061 -82.5408 141° Southeast 254 292 13,200 1,600 Climbing Miami Center
Fri 05:13:20 AM 27.4733 -82.4669 117° Southeast 254 292 14,800 1,587 Climbing Miami Center
Fri 05:14:20 AM 27.4431 -82.3928 115° Southeast 254 292 16,400 1,500 Climbing Miami Center
Fri 05:15:20 AM 27.4144 -82.3167 113° Southeast 259 298 17,800 1,328 Climbing Miami Center
Fri 05:16:22 AM 27.3844 -82.2311 112° Southeast 265 305 19,100 1,180 Climbing Miami Center
Fri 05:17:22 AM 27.3478 -82.1475 116° Southeast 277 319 20,200 1,128 Climbing Miami Center
Fri 05:18:19 AM 27.3153 -82.0619 113° Southeast 288 331 21,300 1,119 Climbing Miami Center
Fri 05:19:20 AM 27.2828 -81.9789 114° Southeast 303 349 22,400 1,091 Climbing Miami Center
Fri 05:20:20 AM 27.2483 -81.8908 114° Southeast 309 356 23,500 1,180 Climbing Miami Center
Fri 05:21:22 AM 27.2081 -81.7886 114° Southeast 309 356 24,800 1,050 Climbing Miami Center
Fri 05:22:20 AM 27.1694 -81.6983 116° Southeast 314 361 25,600 807 Climbing Miami Center
Fri 05:23:21 AM 27.1328 -81.6036 113° Southeast 324 373 26,400 744 Climbing Miami Center
Fri 05:24:21 AM 27.0961 -81.5133 115° Southeast 336 387 27,100 694 Climbing Miami Center
Fri 05:25:22 AM 27.0497 -81.3997 115° Southeast 354 407 27,800 650 Climbing Miami Center
Fri 05:26:21 AM 27.0092 -81.2933 113° Southeast 364 419 28,400 661 Climbing Miami Center
Fri 05:27:20 AM 26.9644 -81.1867 115° Southeast 364 419 29,100 661 Climbing Miami Center
Fri 05:28:19 AM 26.9233 -81.0872 115° Southeast 370 426 29,700 605 Climbing Miami Center
Fri 05:29:19 AM 26.8828 -80.9789 113° Southeast 370 426 30,300 600 Climbing Miami Center
Fri 05:30:19 AM 26.8339 -80.8608 115° Southeast 375 432 30,900 545 Climbing Miami Center
Fri 05:31:20 AM 26.7886 -80.7522 115° Southeast 382 440 31,400 545 Climbing Miami Center
Fri 05:32:20 AM 26.7436 -80.6414 114° Southeast 387 445 32,000 496 Climbing Miami Center
Fri 05:33:21 AM 26.6983 -80.5306 115° Southeast 387 445 32,400 500 Climbing Miami Center
Fri 05:34:20 AM 26.6511 -80.4200 116° Southeast 387 445 33,000 508 Climbing Miami Center
Fri 05:35:19 AM 26.6056 -80.3117 115° Southeast 387 445 33,400 504 Climbing Miami Center
Fri 05:36:19 AM 26.5622 -80.2011 114° Southeast 387 445 34,000 443 Climbing Miami Center
Fri 05:37:21 AM 26.5186 -80.1025 116° Southeast 387 445 34,300 350 Climbing Miami Center
Fri 05:38:19 AM 26.4711 -79.9806 113° Southeast 387 445 34,700 350 Climbing Miami Center
Fri 05:39:21 AM 26.4292 -79.8797 115° Southeast 387 445 35,000 150 Climbing Miami Center
Fri 05:40:19 AM 26.3775 -79.7578 115° Southeast 392 451 35,000  Level Miami Center
Fri 05:41:19 AM 26.3336 -79.6525 115° Southeast 397 457 35,000  Level Miami Center
Fri 05:42:22 AM 26.2775 -79.5236 116° Southeast 403 464 35,000  Level Miami Center
Fri 05:43:19 AM 26.2294 -79.4044 114° Southeast 408 470 35,000  Level Miami Center
Fri 05:44:22 AM 26.1792 -79.2853 115° Southeast 408 470 35,000  Level Miami Center
Fri 05:45:22 AM 26.1289 -79.1664 115° Southeast 408 470 35,000  Level Miami Center
Fri 05:46:19 AM 26.0786 -79.0472 115° Southeast 413 475 35,000  Level Miami Center
Fri 05:47:19 AM 26.0281 -78.9283 115° Southeast 419 482 35,000  Level Miami Center
Fri 05:48:20 AM 25.9753 -78.8097 116° Southeast 425 489 35,000  Level Miami Center
Fri 05:49:22 AM 25.9267 -78.6889 114° Southeast 425 489 35,000  Level Miami Center
Fri 05:50:21 AM 25.8717 -78.5725 118° Southeast 430 495 35,000  Level Miami Center
Fri 05:51:22 AM 25.8231 -78.4539 114° Southeast 424 488 35,000  Level Miami Center
Fri 05:52:22 AM 25.7719 -78.3333 115° Southeast 424 488 35,000  Level Miami Center
Fri 05:53:21 AM 25.7208 -78.2175 116° Southeast 424 488 35,000  Level Miami Center
Fri 05:54:19 AM 25.6675 -78.0992 117° Southeast 424 488 35,000  Level Miami Center
Fri 05:55:19 AM 25.6225 -77.9767 112° Southeast 429 494 35,000  Level Miami Center
Fri 05:56:20 AM 25.5711 -77.8769 120° Southeast 423 487 35,000  Level Miami Center
Fri 05:57:21 AM 25.5194 -77.7614 116° Southeast 423 487 35,000  Level Miami Center
Fri 05:58:22 AM 25.4700 -77.6436 115° Southeast 418 481 35,000  Level Miami Center
Fri 05:59:19 AM 25.4183 -77.5261 116° Southeast 418 481 35,000  Level Miami Center
Fri 06:00:19 AM 25.3625 -77.3992 116° Southeast 418 481 35,000  Level Miami Center
Fri 06:01:19 AM 25.3128 -77.2842 116° Southeast 418 481 35,000  Level Miami Center
Fri 06:02:19 AM 25.2608 -77.1667 116° Southeast 418 481 35,000  Level Miami Center
Fri 06:03:19 AM 25.2086 -77.0517 117° Southeast 418 481 35,000  Level Miami Center
Fri 06:04:19 AM 25.1564 -76.9344 116° Southeast 418 481 35,000  Level Miami Center
Fri 06:05:19 AM 25.1042 -76.8197 117° Southeast 413 475 35,000  Level Miami Center
Fri 06:06:19 AM 25.0519 -76.7028 116° Southeast 413 475 35,000  Level Miami Center
Fri 06:07:19 AM 24.9994 -76.5883 117° Southeast 413 475 35,000  Level Miami Center
Fri 06:08:19 AM 24.9492 -76.4714 115° Southeast 418 481 35,000  Level Miami Center
Fri 06:09:19 AM 24.8922 -76.3547 118° Southeast 418 481 35,000  Level Miami Center
Fri 06:10:19 AM 24.8397 -76.2381 116° Southeast 418 481 35,000  Level Miami Center
Fri 06:11:19 AM 24.7953 -76.1331 115° Southeast 418 481 35,000  Level Miami Center
Fri 06:12:19 AM 24.7486 -76.0167 114° Southeast 418 481 35,000  Level Miami Center
Fri 06:13:19 AM 24.6894 -75.9028 120° Southeast 418 481 35,000  Level Miami Center
Fri 06:14:19 AM 24.6364 -75.7889 117° Southeast 418 481 35,000  Level Miami Center
Fri 06:15:19 AM 24.5853 -75.6750 116° Southeast 424 488 35,000  Level Miami Center
Fri 06:16:19 AM 24.5322 -75.5567 116° Southeast 424 488 35,000  Level Miami Center
Fri 06:17:19 AM 24.4725 -75.4317 118° Southeast 424 488 35,000  Level Miami Center
Fri 06:18:19 AM 24.4211 -75.3161 116° Southeast 424 488 35,000  Level Miami Center
Fri 06:19:19 AM 24.3697 -75.2050 117° Southeast 418 481 35,000  Level Miami Center
Fri 06:20:19 AM 24.3161 -75.0917 117° Southeast 413 475 35,000  Level Miami Center
Fri 06:21:19 AM 24.2647 -74.9806 117° Southeast 408 470 35,000  Level Miami Center
Fri 06:22:19 AM 24.2131 -74.8675 117° Southeast 408 470 35,000  Level Miami Center
Fri 06:23:19 AM 24.1614 -74.7567 117° Southeast 403 464 35,000  Level Miami Center
Fri 06:24:19 AM 24.1097 -74.6461 117° Southeast 403 464 35,000  Level Miami Center
Fri 06:25:19 AM 24.0556 -74.5333 118° Southeast 403 464 35,000  Level Miami Center
Fri 06:26:19 AM 24.0036 -74.4228 117° Southeast 403 464 35,000  Level Miami Center
Fri 06:27:19 AM 23.9497 -74.3100 118° Southeast 403 464 35,000  Level Miami Center
Fri 06:28:19 AM 23.8975 -74.1975 117° Southeast 403 464 35,000  Level Miami Center
Fri 06:29:19 AM 23.8453 -74.0875 117° Southeast 403 464 35,000  Level Miami Center
Fri 06:30:19 AM 23.7931 -73.9794 118° Southeast 403 464 35,000  Level Miami Center
Fri 06:31:19 AM 23.7431 -73.8694 116° Southeast 403 464 35,000  Level Miami Center
Fri 06:32:19 AM 23.6906 -73.7597 118° Southeast 403 464 35,000  Level Miami Center
Fri 06:33:19 AM 23.6381 -73.6519 118° Southeast 403 464 35,000  Level Miami Center
Fri 06:34:19 AM 23.5856 -73.5422 118° Southeast 403 464 35,000  Level Miami Center
Fri 06:35:19 AM 23.5289 -73.4350 120° Southeast 403 464 35,000  Level Miami Center
Fri 06:36:19 AM 23.4803 -73.3253 116° Southeast 403 464 35,000  Level Miami Center
Fri 06:37:19 AM 23.4342 -73.2317 118° Southeast 403 464 35,000  Level Miami Center
Fri 06:38:19 AM 23.3814 -73.1222 118° Southeast 403 464 35,000  Level Miami Center
Fri 06:39:19 AM 23.3308 -73.0153 117° Southeast 403 464 35,000  Level Miami Center
Fri 06:40:19 AM 23.2756 -72.9061 119° Southeast 403 464 35,000  Level Miami Center
Fri 06:41:19 AM 23.2250 -72.8036 118° Southeast 397 457 35,000  Level Miami Center
Fri 06:42:19 AM 23.1758 -72.6944 116° Southeast 397 457 35,000  Level Miami Center
Fri 06:43:19 AM 23.1228 -72.5856 118° Southeast 397 457 35,000  Level Miami Center
Fri 06:44:19 AM 23.0675 -72.4792 119° Southeast 402 463 35,000  Level Miami Center
Fri 06:45:19 AM 23.0206 -72.3725 116° Southeast 402 463 35,000  Level Miami Center
Fri 06:46:19 AM 22.9589 -72.2664 122° Southeast 402 463 35,000  Level Miami Center
Fri 06:47:19 AM 22.9075 -72.1600 118° Southeast 407 468 35,000  Level Miami Center
Fri 06:48:19 AM 22.8542 -72.0539 119° Southeast 407 468 35,000  Level Miami Center
Fri 06:49:19 AM 22.8006 -71.9433 118° Southeast 407 468 35,000  Level Miami Center
Fri 06:50:19 AM 22.7467 -71.8350 118° Southeast 407 468 35,000  Level Miami Center
Fri 06:51:19 AM 22.6950 -71.7269 117° Southeast 402 463 35,000  Level Miami Center
Fri 06:52:19 AM 22.6414 -71.6233 119° Southeast 402 463 35,000  Level Miami Center
Fri 06:53:19 AM 22.5853 -71.5111 118° Southeast 402 463 35,000  Level Miami Center
Fri 06:54:19 AM 22.5336 -71.4031 117° Southeast 402 463 35,000  Level Miami Center
Fri 06:55:19 AM 22.4794 -71.2931 118° Southeast 402 463 35,000  Level Miami Center
Fri 06:56:19 AM 22.4253 -71.1853 119° Southeast 402 463 35,000  Level Miami Center
Fri 06:57:19 AM 22.3692 -71.0756 119° Southeast 402 463 35,000  Level Miami Center
Fri 06:58:19 AM 22.3128 -70.9661 119° Southeast 407 468 35,000  Level Miami Center
Fri 06:59:19 AM 22.2586 -70.8631 120° Southeast 401 461 35,000  Level Miami Center
Fri 07:00:19 AM 22.2042 -70.7536 118° Southeast 407 468 35,000  Level Miami Center
Fri 07:01:19 AM 22.1475 -70.6464 120° Southeast 402 463 35,000  Level Miami Center
Fri 07:02:19 AM 22.0931 -70.5394 119° Southeast 402 463 35,000  Level Miami Center
Fri 07:03:19 AM 22.0386 -70.4300 118° Southeast 402 463 35,000  Level Miami Center
Fri 07:04:19 AM 21.9839 -70.3233 119° Southeast 402 463 35,000  Level Miami Center
Fri 07:05:19 AM 21.9292 -70.2164 119° Southeast 402 463 35,000  Level Miami Center
Fri 07:06:19 AM 21.8744 -70.1075 118° Southeast 407 468 35,000  Level Miami Center
Fri 07:07:19 AM 21.8175 -69.9986 119° Southeast 407 468 35,000  Level Miami Center
Fri 07:08:19 AM 21.7558 -69.8836 120° Southeast 407 468 35,000  Level Miami Center
Fri 07:09:19 AM 21.6989 -69.7750 119° Southeast 407 468 35,000  Level Miami Center
Fri 07:10:19 AM 21.6458 -69.6664 118° Southeast 407 468 35,000  Level Miami Center
Fri 07:11:19 AM 21.5908 -69.5603 119° Southeast 407 468 35,000  Level Miami Center
Fri 07:12:19 AM 21.5314 -69.4544 121° Southeast 402 463 35,000  Level Miami Center
Fri 07:13:19 AM 21.4764 -69.3506 120° Southeast 402 463 35,000  Level Miami Center
Fri 07:14:19 AM 21.4211 -69.2444 119° Southeast 402 463 35,000  Level Miami Center
Fri 07:15:19 AM 21.3700 -69.1386 117° Southeast 402 463 35,000  Level Miami Center
Fri 07:16:19 AM 21.3128 -69.0350 121° Southeast 402 463 35,000  Level Miami Center
Fri 07:17:19 AM 21.2550 -68.9250 119° Southeast 407 468 35,000  Level Miami Center
Fri 07:18:19 AM 21.1997 -68.8239 120° Southeast 402 463 35,000  Level Miami Center
Fri 07:19:19 AM 21.1464 -68.7183 118° Southeast 402 463 35,000  Level Miami Center
Fri 07:20:19 AM 21.0886 -68.6108 120° Southeast 407 468 35,000  Level Miami Center
Fri 07:21:19 AM 21.0350 -68.5078 119° Southeast 402 463 35,000  Level Miami Center
Fri 07:22:19 AM 20.9772 -68.4028 120° Southeast 402 463 35,000  Level Miami Center
Fri 07:23:19 AM 20.9217 -68.2975 119° Southeast 402 463 35,000  Level Miami Center
Fri 07:24:19 AM 20.8656 -68.1903 119° Southeast 402 463 35,000  Level Miami Center
Fri 07:25:19 AM 20.8078 -68.0856 121° Southeast 402 463 35,000  Level Miami Center
Fri 07:26:19 AM 20.7581 -67.9803 117° Southeast 402 463 35,000  Level Miami Center
Fri 07:27:19 AM 20.6936 -67.8761 123° Southeast 402 463 35,000  Level Miami Center
Fri 07:28:19 AM 20.6336 -67.7742 122° Southeast 402 463 35,000  Level Miami Center
Fri 07:29:19 AM 20.5817 -67.6694 118° Southeast 402 463 35,000  Level Miami Center
Fri 07:30:19 AM 20.5275 -67.5625 118° Southeast 402 463 35,000  Level Miami Center
Fri 07:31:28 AM 20.4667 -67.4333 117° Southeast 410 472 35,000  Level San Center
Fri 07:32:28 AM 20.4000 -67.3333 125° Southeast 400 460 35,000  Level San Center
Fri 07:33:29 AM 20.3500 -67.2333 118° Southeast 410 472 35,000  Level San Center
Fri 07:34:29 AM 20.3000 -67.1333 118° Southeast 410 472 35,000  Level San Center
Fri 07:35:30 AM 20.2333 -67.0167 121° Southeast 410 472 35,000  Level San Center
Fri 07:36:30 AM 20.1833 -66.9167 118° Southeast 410 472 35,000  Level San Center
Fri 07:37:30 AM 20.1167 -66.8167 125° Southeast 410 472 35,000  Level San Center
Fri 07:38:31 AM 20.0667 -66.7000 115° Southeast 410 472 35,000  Level San Center
Fri 07:39:31 AM 20.0000 -66.6000 125° Southeast 410 472 35,000  Level San Center
Fri 07:40:31 AM 19.9500 -66.5000 118° Southeast 410 472 35,000  Level San Center
Fri 07:41:31 AM 19.9000 -66.4000 118° Southeast 410 472 35,000  Level San Center
Fri 07:42:32 AM 19.8333 -66.3000 125° Southeast 400 460 35,000  Level San Center
Fri 07:43:32 AM 19.7833 -66.1833 114° Southeast 400 460 35,000  Level San Center
Fri 07:44:33 AM 19.7167 -66.0833 125° Southeast 400 460 35,000  Level San Center
Fri 07:45:33 AM 19.6667 -65.9833 118° Southeast 400 460 35,000  Level San Center
Fri 07:46:33 AM 19.6167 -65.8833 118° Southeast 400 460 35,000  Level San Center
Fri 07:47:34 AM 19.5500 -65.7833 125° Southeast 400 460 35,000  Level San Center
Fri 07:48:34 AM 19.5000 -65.6833 118° Southeast 400 460 35,000  Level San Center
Fri 07:49:34 AM 19.4500 -65.5833 118° Southeast 390 449 35,000  Level San Center
Fri 07:50:35 AM 19.3833 -65.4833 125° Southeast 400 460 35,000  Level San Center
Fri 07:51:35 AM 19.3333 -65.3833 118° Southeast 400 460 35,000  Level San Center
Fri 07:52:36 AM 19.2833 -65.2833 118° Southeast 390 449 35,000  Level San Center
Fri 07:53:36 AM 19.2167 -65.1667 121° Southeast 390 449 35,000 -550 Level San Center
Fri 07:54:36 AM 19.1500 -65.0667 125° Southeast 400 460 33,900 -1,537 Descending San Center
Fri 07:55:37 AM 19.1000 -64.9500 114° Southeast 420 483 31,900 -2,033 Descending San Center
Fri 07:56:37 AM 19.0333 -64.8500 125° Southeast 420 483 29,800 -1,950 Descending San Center
Fri 07:57:37 AM 18.9667 -64.7500 125° Southeast 420 483 28,000 -1,934 Descending San Center
Fri 07:58:38 AM 18.9167 -64.6333 114° Southeast 420 483 25,900 -2,033 Descending San Center
Fri 07:59:38 AM 18.8500 -64.5333 125° Southeast 400 460 23,900 -2,033 Descending San Center
Fri 08:00:39 AM 18.8000 -64.4333 118° Southeast 370 426 21,800 -2,033 Descending San Center
Fri 08:01:39 AM 18.7500 -64.3500 122° Southeast 370 426 19,800 -2,000 Descending San Center
Fri 08:02:39 AM 18.7000 -64.2500 118° Southeast 360 414 17,800 -1,835 Descending San Center
Fri 08:03:40 AM 18.6500 -64.1667 122° Southeast 340 391 16,100 -1,388 Descending San Center
Fri 08:04:40 AM 18.6000 -64.0833 122° Southeast 330 380 15,000 -550 Descending San Center
Fri 08:05:40 AM 18.5500 -64.0000 122° Southeast 310 357 15,000  Level San Center
Fri 08:06:41 AM 18.5000 -63.9500 137° Southeast 290 334 15,000  Level San Center
Fri 08:07:41 AM 18.4500 -63.8667 122° Southeast 320 368 15,000  Level San Center

Login

Don't have an account? Register now (free) for customized features, flight alerts, and more!